Clarkston, Washington
Current Conditions -  °F | °C
As of 4:56 PM on Monday 20 Oct 2014 (Local Time) from KLWS Reporting Station
Clear Clear  
Wind Chill: 71°   Ceiling: Unl
Heat Index: 71°   Visibility: 8mi
Dew Point: 45°   Wind: 9mph
Humidity: 39%   Direction: 300°WNW
Pressure: 29.71"   Gusts: NA
Location:  46.41°N, 117.04°W
Report Text: KLWS 202356Z 30008KT 8SM CLR 22/07 A2971 RMK AO2 SLP056 T02170072 10239 20150 55001
Loading
Personal Weather Stations






























Interactive Weather Map
Tropical Storm Tracking
New forecast layout! Learn more

10-Day Weather Forecast

Advertisements
Track Severe Weather on mobile